createdAt,value
2023-01-07T00:01:31.896Z,3.88
2023-01-07T00:04:00.989Z,6.43
2023-01-07T00:06:35.209Z,4.88
2023-01-07T00:09:02.866Z,5.70
2023-01-07T00:11:32.776Z,7.80
2023-01-07T00:14:01.049Z,6.18
2023-01-07T00:16:30.487Z,6.18
2023-01-07T00:18:59.078Z,8.65
2023-01-07T00:21:27.440Z,8.18
2023-01-07T00:24:00.519Z,8.02
2023-01-07T00:26:30.561Z,6.05
2023-01-07T00:28:58.648Z,8.07
2023-01-07T00:31:28.351Z,8.25
2023-01-07T00:33:55.472Z,6.28
2023-01-07T00:36:25.057Z,6.18
2023-01-07T00:39:00.189Z,8.55
2023-01-07T00:41:27.491Z,6.25
2023-01-07T00:43:54.946Z,6.55
2023-01-07T00:46:21.958Z,8.00
2023-01-07T00:48:49.032Z,9.57
2023-01-07T00:51:17.869Z,6.25
2023-01-07T00:53:44.745Z,8.95
2023-01-07T00:56:14.565Z,8.38
2023-01-07T00:58:41.944Z,6.88
2023-01-07T01:01:09.632Z,7.65
2023-01-07T01:03:36.715Z,7.85
2023-01-07T01:06:08.954Z,6.32
2023-01-07T01:08:36.014Z,8.60
2023-01-07T01:11:07.714Z,9.15
2023-01-07T01:13:35.518Z,8.63
2023-01-07T01:16:07.284Z,8.55
2023-01-07T01:18:34.115Z,6.75
2023-01-07T01:21:05.302Z,7.75
2023-01-07T01:23:32.098Z,8.15
2023-01-07T01:26:11.769Z,6.60
2023-01-07T01:28:38.957Z,8.13
2023-01-07T01:31:08.344Z,9.70
2023-01-07T01:34:01.198Z,7.68
2023-01-07T01:36:28.302Z,9.07
2023-01-07T01:38:57.805Z,9.73
2023-01-07T01:41:27.113Z,7.82
2023-01-07T01:43:55.488Z,9.13
2023-01-07T01:46:51.419Z,12.57
2023-01-07T01:49:26.311Z,9.75
2023-01-07T01:52:03.142Z,8.65
2023-01-07T01:54:30.764Z,10.00
2023-01-07T01:57:03.012Z,11.23
2023-01-07T01:59:33.411Z,10.63
2023-01-07T02:02:04.094Z,9.90
2023-01-07T02:04:31.758Z,9.30
2023-01-07T02:07:01.212Z,9.48
2023-01-07T02:09:29.989Z,12.90
2023-01-07T02:11:56.912Z,8.38
2023-01-07T02:14:45.958Z,12.30
2023-01-07T02:17:28.435Z,12.77
2023-01-07T02:20:01.095Z,8.70
2023-01-07T02:23:08.795Z,7.70
2023-01-07T02:25:42.035Z,13.07
2023-01-07T02:31:21.993Z,10.55
2023-01-07T02:33:58.238Z,9.68
2023-01-07T02:36:54.058Z,10.40
2023-01-07T02:39:29.947Z,11.50
2023-01-07T02:42:48.124Z,10.38
2023-01-07T02:45:32.027Z,10.82
2023-01-07T02:48:06.860Z,10.38
2023-01-07T02:50:34.302Z,11.60
2023-01-07T02:53:01.031Z,11.25
2023-01-07T02:55:46.187Z,11.20
2023-01-07T02:58:36.837Z,12.43
2023-01-07T03:01:34.196Z,12.75
2023-01-07T03:04:35.972Z,11.73
2023-01-07T03:07:13.182Z,11.00
2023-01-07T03:09:54.971Z,11.27
2023-01-07T03:12:34.307Z,9.82
2023-01-07T03:15:21.991Z,13.40
2023-01-07T03:18:13.510Z,11.57
2023-01-07T03:20:42.496Z,12.55
2023-01-07T03:23:13.325Z,11.90
2023-01-07T03:25:46.584Z,13.43
2023-01-07T03:30:43.524Z,12.75
2023-01-07T03:33:25.693Z,12.90
2023-01-07T03:35:56.603Z,11.68
2023-01-07T03:38:24.954Z,13.90
2023-01-07T03:40:53.116Z,10.60
2023-01-07T03:43:22.672Z,11.45
2023-01-07T03:45:52.096Z,13.05
2023-01-07T03:48:19.509Z,12.80
2023-01-07T03:50:48.571Z,11.35
2023-01-07T03:53:15.497Z,12.68
2023-01-07T03:55:45.289Z,8.40
2023-01-07T03:58:12.095Z,9.63
2023-01-07T04:00:39.021Z,10.48
2023-01-07T04:03:13.860Z,9.93
2023-01-07T04:05:44.591Z,8.98
2023-01-07T04:08:12.338Z,11.10
2023-01-07T04:10:39.905Z,10.77
2023-01-07T04:13:06.781Z,7.75
2023-01-07T04:15:33.533Z,8.40
2023-01-07T04:18:00.272Z,10.23
2023-01-07T04:20:28.095Z,8.98
2023-01-07T04:22:54.890Z,9.57
2023-01-07T04:25:21.670Z,10.07
2023-01-07T04:27:49.291Z,9.68
2023-01-07T04:30:16.214Z,10.02
2023-01-07T04:32:43.203Z,10.73
2023-01-07T04:35:10.677Z,8.90
2023-01-07T04:37:38.289Z,9.90
2023-01-07T04:40:06.339Z,12.63
2023-01-07T04:42:35.521Z,9.60
2023-01-07T04:45:04.305Z,9.93
2023-01-07T04:47:31.775Z,10.98
2023-01-07T04:49:59.197Z,9.85
2023-01-07T04:52:30.275Z,9.15
2023-01-07T04:54:59.292Z,10.10
2023-01-07T04:57:26.071Z,9.98
2023-01-07T04:59:53.491Z,10.60
2023-01-07T05:02:20.465Z,9.30
2023-01-07T05:04:48.072Z,10.35
2023-01-07T05:07:16.730Z,9.63
2023-01-07T05:09:43.753Z,13.82
2023-01-07T05:12:11.252Z,11.00
2023-01-07T05:14:38.747Z,10.20
2023-01-07T05:17:05.671Z,10.65
2023-01-07T05:19:32.705Z,9.07
2023-01-07T05:22:01.010Z,10.55
2023-01-07T05:24:28.337Z,9.65
2023-01-07T05:26:55.213Z,9.15
2023-01-07T05:29:22.845Z,9.10
2023-01-07T05:31:49.693Z,8.82
2023-01-07T05:34:16.638Z,10.77
2023-01-07T05:36:45.457Z,9.02
2023-01-07T05:39:12.326Z,9.13
2023-01-07T05:41:39.114Z,8.70
2023-01-07T05:44:06.622Z,9.73
2023-01-07T05:46:33.484Z,10.00
2023-01-07T05:49:00.347Z,8.02
2023-01-07T05:51:27.096Z,8.07
2023-01-07T05:53:53.949Z,11.15
2023-01-07T05:56:20.655Z,9.05
2023-01-07T05:58:47.426Z,7.22
2023-01-07T06:01:14.273Z,8.10
2023-01-07T06:03:41.250Z,9.95
2023-01-07T06:06:08.105Z,7.93
2023-01-07T06:08:38.980Z,8.75
2023-01-07T06:11:07.076Z,9.20
2023-01-07T06:13:34.103Z,8.57
2023-01-07T06:16:09.066Z,8.05
2023-01-07T06:18:36.718Z,8.82
2023-01-07T06:21:04.091Z,11.55
2023-01-07T06:23:31.530Z,11.05
2023-01-07T06:25:58.441Z,7.82
2023-01-07T06:28:25.186Z,10.93
2023-01-07T06:30:51.949Z,14.80
2023-01-07T06:33:18.746Z,8.63
2023-01-07T06:35:46.350Z,10.75
2023-01-07T06:38:13.158Z,10.52
2023-01-07T06:40:39.997Z,9.07
2023-01-07T06:43:06.765Z,11.90
2023-01-07T06:45:33.495Z,9.15
2023-01-07T06:48:00.385Z,9.77
2023-01-07T06:50:27.378Z,9.02
2023-01-07T06:52:54.268Z,12.55
2023-01-07T06:55:20.982Z,10.70
2023-01-07T06:57:47.824Z,11.70
2023-01-07T07:00:15.118Z,12.38
2023-01-07T07:02:41.879Z,10.63
2023-01-07T07:05:08.793Z,11.32
2023-01-07T07:07:35.761Z,10.05
2023-01-07T07:10:07.306Z,9.93
2023-01-07T07:12:35.448Z,9.05
2023-01-07T07:15:02.545Z,9.90
2023-01-07T07:17:30.773Z,10.25
2023-01-07T07:19:57.560Z,9.77
2023-01-07T07:22:24.281Z,9.68
2023-01-07T07:24:51.053Z,9.82
2023-01-07T07:27:17.797Z,8.82
2023-01-07T07:29:44.831Z,13.93
2023-01-07T07:32:11.630Z,10.32
2023-01-07T07:34:38.391Z,11.27
2023-01-07T07:37:06.437Z,12.20
2023-01-07T07:39:34.095Z,10.23
2023-01-07T07:42:04.214Z,10.25
2023-01-07T07:44:31.126Z,11.00
2023-01-07T07:46:57.979Z,12.18
2023-01-07T07:49:24.823Z,11.38
2023-01-07T07:51:51.807Z,12.65
2023-01-07T07:54:18.628Z,12.15
2023-01-07T07:56:45.408Z,13.20
2023-01-07T07:59:12.267Z,11.82
2023-01-07T08:01:39.200Z,12.30
2023-01-07T08:04:06.106Z,11.52
2023-01-07T08:06:34.332Z,11.85
2023-01-07T08:09:01.492Z,13.30
2023-01-07T08:11:28.711Z,11.80
2023-01-07T08:13:55.475Z,11.30
2023-01-07T08:16:22.533Z,9.38
2023-01-07T08:18:49.331Z,12.00
2023-01-07T08:21:16.227Z,12.93
2023-01-07T08:23:43.184Z,9.45
2023-01-07T08:26:09.959Z,12.18
2023-01-07T08:28:38.221Z,11.65
2023-01-07T08:31:07.066Z,10.10
2023-01-07T08:33:37.759Z,9.57
2023-01-07T08:36:09.398Z,10.80
2023-01-07T08:38:36.279Z,11.95
2023-01-07T08:41:04.087Z,9.70
2023-01-07T08:43:30.885Z,11.50
2023-01-07T08:45:57.667Z,8.82
2023-01-07T08:48:24.498Z,8.35
2023-01-07T08:50:53.098Z,9.98
2023-01-07T08:53:20.859Z,13.20
2023-01-07T08:55:47.642Z,9.90
2023-01-07T08:58:14.636Z,9.68
2023-01-07T09:00:42.165Z,8.13
2023-01-07T09:03:09.152Z,8.43
2023-01-07T09:05:36.138Z,7.18
2023-01-07T09:08:04.336Z,8.63
2023-01-07T09:10:32.292Z,11.02
2023-01-07T09:13:00.147Z,8.57
2023-01-07T09:15:26.960Z,6.20
2023-01-07T09:17:53.781Z,6.80
2023-01-07T09:20:20.674Z,5.30
2023-01-07T09:22:47.701Z,7.30
2023-01-07T09:25:14.556Z,6.28
2023-01-07T09:27:42.429Z,6.85
2023-01-07T09:30:09.783Z,7.85
2023-01-07T09:32:36.651Z,9.50
2023-01-07T09:35:04.281Z,7.80
2023-01-07T09:37:31.157Z,8.80
2023-01-07T09:39:57.950Z,7.05
2023-01-07T09:42:44.395Z,5.32
2023-01-07T09:45:34.601Z,5.50
2023-01-07T09:48:06.805Z,7.45
2023-01-07T09:51:02.679Z,5.82
2023-01-07T09:53:43.177Z,6.45
2023-01-07T09:56:23.468Z,6.35
2023-01-07T09:58:50.507Z,5.43
2023-01-07T10:01:22.157Z,5.35
2023-01-07T10:04:10.059Z,3.70
2023-01-07T10:06:51.474Z,4.57
2023-01-07T10:09:36.089Z,4.80
2023-01-07T10:12:11.760Z,4.18
2023-01-07T10:15:03.151Z,4.65
2023-01-07T10:18:00.824Z,4.28
2023-01-07T10:20:44.024Z,5.20
2023-01-07T10:23:12.649Z,3.50
2023-01-07T10:25:46.892Z,4.53
2023-01-07T10:28:36.262Z,4.50
2023-01-07T10:31:05.922Z,4.72
2023-01-07T10:33:34.005Z,4.15
2023-01-07T10:36:28.845Z,6.55
2023-01-07T10:39:20.853Z,4.47
2023-01-07T10:42:29.144Z,4.75
2023-01-07T10:45:16.591Z,5.38
2023-01-07T10:48:05.903Z,4.40
2023-01-07T10:50:56.427Z,5.22
2023-01-07T10:53:41.320Z,5.97
2023-01-07T10:56:46.596Z,5.15
2023-01-07T10:59:18.125Z,6.45
2023-01-07T11:01:52.918Z,5.90
2023-01-07T11:04:20.347Z,8.48
2023-01-07T11:07:11.271Z,5.22
2023-01-07T11:09:42.497Z,4.70
2023-01-07T11:12:41.743Z,5.30
2023-01-07T11:15:36.932Z,4.18
2023-01-07T11:18:20.242Z,6.15
2023-01-07T11:20:54.854Z,4.38
2023-01-07T11:23:34.348Z,6.40
2023-01-07T11:26:09.386Z,5.05
2023-01-07T11:28:40.873Z,4.63
2023-01-07T11:31:07.663Z,5.72
2023-01-07T11:34:01.860Z,5.25
2023-01-07T11:36:41.774Z,4.78
2023-01-07T11:39:18.541Z,7.10
2023-01-07T11:41:55.981Z,4.53
2023-01-07T11:44:23.268Z,4.70
2023-01-07T11:46:50.310Z,4.95
2023-01-07T11:49:30.589Z,4.15
2023-01-07T11:51:58.814Z,3.75
2023-01-07T11:54:34.582Z,3.03
2023-01-07T11:57:25.401Z,4.43
2023-01-07T12:00:13.163Z,5.97
2023-01-07T12:02:40.334Z,4.68
2023-01-07T12:05:22.887Z,5.55
2023-01-07T12:07:51.910Z,3.72
2023-01-07T12:10:29.028Z,5.22
2023-01-07T12:12:56.106Z,8.27
2023-01-07T12:15:30.855Z,8.85
2023-01-07T12:18:20.158Z,9.40
2023-01-07T12:21:18.308Z,12.13
2023-01-07T12:24:03.965Z,9.07
2023-01-07T12:26:47.254Z,11.90
2023-01-07T12:29:29.083Z,10.18
2023-01-07T12:32:26.948Z,10.20
2023-01-07T12:35:14.217Z,11.23
2023-01-07T12:37:53.955Z,11.75
2023-01-07T12:40:48.188Z,8.93
2023-01-07T12:43:17.721Z,7.20
2023-01-07T12:45:49.783Z,6.57
2023-01-07T12:48:34.686Z,7.30
2023-01-07T12:51:24.212Z,6.85
2023-01-07T12:54:14.255Z,5.72
2023-01-07T12:56:59.335Z,6.47
2023-01-07T12:59:46.040Z,6.72
2023-01-07T13:02:33.274Z,7.22
2023-01-07T13:05:06.002Z,6.88
2023-01-07T13:07:46.203Z,8.13
2023-01-07T13:10:28.481Z,9.60
2023-01-07T13:13:02.854Z,7.72
2023-01-07T13:15:36.032Z,6.68
2023-01-07T13:21:05.214Z,9.77
2023-01-07T13:26:52.199Z,7.57
2023-01-07T13:29:34.022Z,7.72
2023-01-07T13:32:23.134Z,11.13
2023-01-07T13:35:03.324Z,9.95
2023-01-07T13:37:36.123Z,11.27
2023-01-07T13:40:48.958Z,12.02
2023-01-07T13:43:39.963Z,10.77
2023-01-07T13:46:16.383Z,12.95
2023-01-07T13:48:50.416Z,12.48
2023-01-07T13:51:28.523Z,13.35
2023-01-07T13:53:55.426Z,12.95
2023-01-07T13:56:25.960Z,14.77
2023-01-07T13:58:57.605Z,14.25
2023-01-07T14:01:26.764Z,15.45
2023-01-07T14:04:09.236Z,14.43
2023-01-07T14:06:42.012Z,14.65
2023-01-07T14:09:11.135Z,13.02
2023-01-07T14:11:41.940Z,15.15
2023-01-07T14:14:13.071Z,14.00
2023-01-07T14:16:48.404Z,11.32
2023-01-07T14:19:21.191Z,12.32
2023-01-07T14:22:15.606Z,13.57
2023-01-07T14:25:12.533Z,14.40
2023-01-07T14:28:00.864Z,13.90
2023-01-07T14:30:43.776Z,13.60
2023-01-07T14:33:23.694Z,15.77
2023-01-07T14:36:03.427Z,12.95
2023-01-07T14:38:30.151Z,11.95
2023-01-07T14:41:03.199Z,13.75
2023-01-07T14:43:42.394Z,12.68
2023-01-07T14:46:22.097Z,15.68
2023-01-07T14:49:04.134Z,13.52
2023-01-07T14:51:51.736Z,14.02
2023-01-07T14:54:28.308Z,14.43
2023-01-07T14:57:19.378Z,17.77
2023-01-07T15:00:12.480Z,16.83
2023-01-07T15:03:10.003Z,15.60
2023-01-07T15:05:39.620Z,16.17
2023-01-07T15:08:29.880Z,18.60
2023-01-07T15:11:17.792Z,16.92
2023-01-07T15:14:40.600Z,15.68
2023-01-07T15:17:11.158Z,17.23
2023-01-07T15:19:39.807Z,15.43
2023-01-07T15:22:34.637Z,18.08
2023-01-07T15:25:29.264Z,16.08
2023-01-07T15:31:41.333Z,18.30
2023-01-07T15:34:16.734Z,17.92
2023-01-07T15:36:51.792Z,20.52
2023-01-07T15:39:29.305Z,18.10
2023-01-07T15:41:57.747Z,20.98
2023-01-07T15:44:41.562Z,22.00
2023-01-07T15:47:41.368Z,22.67
2023-01-07T15:50:29.320Z,25.90
2023-01-07T15:53:01.820Z,26.13
2023-01-07T15:55:40.945Z,25.83
2023-01-07T15:58:32.737Z,32.53
2023-01-07T16:01:02.521Z,31.33
2023-01-07T16:03:30.705Z,31.92
2023-01-07T16:05:59.819Z,30.55
2023-01-07T16:08:30.818Z,33.85
2023-01-07T16:11:05.816Z,30.60
2023-01-07T16:13:36.883Z,33.05
2023-01-07T16:16:06.598Z,34.65
2023-01-07T16:18:33.913Z,38.17
2023-01-07T16:21:12.784Z,36.25
2023-01-07T16:23:40.840Z,35.03
2023-01-07T16:26:36.406Z,37.03
2023-01-07T16:29:14.758Z,39.58
2023-01-07T16:31:41.884Z,38.50
2023-01-07T16:34:34.058Z,41.00
2023-01-07T16:37:04.532Z,44.80
2023-01-07T16:39:34.992Z,56.17
2023-01-07T16:42:20.736Z,40.33
2023-01-07T16:44:49.617Z,48.60
2023-01-07T16:47:36.404Z,42.08
2023-01-07T16:50:20.212Z,46.22
2023-01-07T16:52:55.846Z,46.20
2023-01-07T16:55:44.322Z,40.40
2023-01-07T16:58:32.489Z,41.75
2023-01-07T17:01:02.425Z,42.60
2023-01-07T17:03:33.432Z,49.05
2023-01-07T17:06:14.966Z,46.60
2023-01-07T17:09:30.065Z,46.00
2023-01-07T17:12:01.138Z,39.63
2023-01-07T17:14:48.133Z,42.38
2023-01-07T17:17:17.941Z,39.30
2023-01-07T17:19:57.759Z,40.20
2023-01-07T17:22:38.288Z,39.97
2023-01-07T17:25:30.495Z,37.83
2023-01-07T17:27:59.786Z,36.70
2023-01-07T17:30:34.591Z,44.15
2023-01-07T17:33:01.745Z,40.00
2023-01-07T17:35:54.631Z,41.60
2023-01-07T17:38:21.717Z,40.00
2023-01-07T17:40:48.956Z,37.45
2023-01-07T17:43:34.734Z,40.20
2023-01-07T17:46:02.188Z,41.42
2023-01-07T17:48:29.329Z,39.88
2023-01-07T17:50:57.266Z,37.17
2023-01-07T17:53:42.511Z,37.35
2023-01-07T17:56:09.482Z,35.45
2023-01-07T17:58:37.747Z,36.67
2023-01-07T18:01:13.209Z,36.55
2023-01-07T18:03:40.476Z,37.50
2023-01-07T18:06:18.916Z,36.00
2023-01-07T18:08:47.177Z,37.13
2023-01-07T18:11:36.193Z,43.55
2023-01-07T18:14:07.209Z,37.47
2023-01-07T18:16:34.681Z,35.03
2023-01-07T18:19:01.606Z,38.65
2023-01-07T18:21:28.522Z,37.90
2023-01-07T18:24:09.963Z,40.80
2023-01-07T18:27:00.507Z,37.17
2023-01-07T18:29:30.363Z,37.22
2023-01-07T18:31:57.384Z,35.28
2023-01-07T18:34:24.259Z,32.65
2023-01-07T18:36:51.056Z,32.45
2023-01-07T18:39:29.862Z,34.75
2023-01-07T18:41:56.614Z,34.88
2023-01-07T18:44:24.607Z,32.97
2023-01-07T18:46:51.665Z,37.03
2023-01-07T18:49:18.803Z,31.65
2023-01-07T18:51:48.741Z,34.35
2023-01-07T18:54:19.055Z,35.35
2023-01-07T18:56:49.805Z,37.17
2023-01-07T18:59:16.706Z,37.78
2023-01-07T19:01:49.737Z,39.00
2023-01-07T19:04:22.261Z,38.58
2023-01-07T19:06:49.064Z,37.13
2023-01-07T19:09:19.128Z,34.55
2023-01-07T19:11:47.389Z,38.22
2023-01-07T19:14:16.098Z,38.08
2023-01-07T19:16:43.452Z,38.88
2023-01-07T19:19:47.851Z,40.35
2023-01-07T19:22:20.231Z,40.58
2023-01-07T19:24:47.000Z,41.15
2023-01-07T19:27:13.909Z,37.33
2023-01-07T19:29:40.760Z,43.60
2023-01-07T19:32:10.367Z,43.22
2023-01-07T19:34:39.819Z,41.40
2023-01-07T19:37:09.969Z,43.28
2023-01-07T19:39:37.455Z,43.83
2023-01-07T19:42:04.780Z,42.28
2023-01-07T19:44:34.432Z,46.25
2023-01-07T19:47:01.233Z,44.28
2023-01-07T19:49:29.906Z,42.25
2023-01-07T19:51:56.883Z,41.97
2023-01-07T19:54:23.663Z,43.67
2023-01-07T19:56:50.471Z,43.80
2023-01-07T19:59:17.351Z,43.42
2023-01-07T20:01:45.365Z,44.20
2023-01-07T20:04:12.478Z,41.70
2023-01-07T20:06:39.383Z,42.72
2023-01-07T20:09:10.820Z,40.85
2023-01-07T20:11:42.525Z,43.85
2023-01-07T20:14:10.650Z,41.13
2023-01-07T20:16:39.684Z,38.15
2023-01-07T20:19:07.507Z,39.08
2023-01-07T20:21:34.477Z,41.13
2023-01-07T20:24:01.607Z,40.35
2023-01-07T20:26:33.183Z,36.60
2023-01-07T20:29:00.978Z,40.83
2023-01-07T20:31:29.680Z,38.10
2023-01-07T20:33:57.683Z,40.63
2023-01-07T20:36:28.056Z,40.30
2023-01-07T20:38:55.093Z,40.03
2023-01-07T20:41:27.126Z,39.35
2023-01-07T20:43:59.381Z,40.72
2023-01-07T20:46:28.504Z,44.83
2023-01-07T20:48:56.670Z,37.50
2023-01-07T20:51:23.598Z,40.35
2023-01-07T20:53:50.658Z,40.17
2023-01-07T20:56:21.971Z,38.20
2023-01-07T20:58:49.675Z,39.70
2023-01-07T21:01:19.713Z,38.65
2023-01-07T21:03:47.071Z,39.72
2023-01-07T21:06:17.489Z,46.45
2023-01-07T21:08:45.776Z,39.90
2023-01-07T21:11:14.347Z,39.35
2023-01-07T21:13:41.464Z,44.03
2023-01-07T21:16:08.540Z,39.75
2023-01-07T21:18:35.705Z,39.63
2023-01-07T21:21:08.489Z,44.85
2023-01-07T21:23:35.459Z,40.45
2023-01-07T21:26:02.218Z,39.00
2023-01-07T21:28:28.954Z,37.25
2023-01-07T21:30:55.795Z,36.72
2023-01-07T21:33:22.555Z,37.53
2023-01-07T21:35:49.303Z,39.28
2023-01-07T21:38:16.094Z,38.05
2023-01-07T21:40:42.923Z,37.85
2023-01-07T21:43:09.673Z,36.97
2023-01-07T21:45:37.300Z,43.25
2023-01-07T21:48:04.225Z,39.33
2023-01-07T21:50:30.974Z,44.47
2023-01-07T21:52:57.845Z,44.33
2023-01-07T21:55:24.774Z,42.40
2023-01-07T21:57:51.501Z,48.75
2023-01-07T22:00:18.412Z,49.28
2023-01-07T22:02:45.285Z,48.85
2023-01-07T22:05:12.214Z,51.55
2023-01-07T22:07:39.735Z,54.25
2023-01-07T22:10:06.915Z,51.58
2023-01-07T22:12:34.256Z,53.28
2023-01-07T22:15:01.390Z,57.40
2023-01-07T22:17:31.005Z,58.80
2023-01-07T22:19:57.791Z,61.00
2023-01-07T22:22:24.563Z,59.65
2023-01-07T22:24:51.342Z,66.35
2023-01-07T22:27:18.637Z,61.28
2023-01-07T22:29:45.524Z,66.32
2023-01-07T22:32:26.632Z,55.25
2023-01-07T22:34:53.409Z,57.28
2023-01-07T22:37:23.991Z,56.38
2023-01-07T22:39:57.769Z,59.22
2023-01-07T22:42:57.984Z,61.78
2023-01-07T22:45:40.949Z,60.63
2023-01-07T22:48:09.904Z,59.33
2023-01-07T22:50:37.297Z,54.90
2023-01-07T22:53:04.425Z,52.47
2023-01-07T22:55:32.757Z,60.55
2023-01-07T22:58:01.362Z,63.88
2023-01-07T23:00:54.833Z,66.68
2023-01-07T23:03:23.170Z,65.82
2023-01-07T23:05:51.395Z,59.88
2023-01-07T23:08:18.480Z,67.38
2023-01-07T23:10:45.629Z,62.58
2023-01-07T23:13:12.481Z,62.70
2023-01-07T23:15:40.082Z,62.45
2023-01-07T23:18:08.948Z,74.03
2023-01-07T23:20:39.373Z,64.07
2023-01-07T23:23:06.222Z,67.03
2023-01-07T23:28:18.406Z,65.97
2023-01-07T23:30:45.422Z,68.70
2023-01-07T23:33:12.541Z,69.00
2023-01-07T23:35:39.354Z,65.20
2023-01-07T23:38:06.387Z,68.18
2023-01-07T23:40:33.245Z,65.18
2023-01-07T23:42:59.969Z,70.60
2023-01-07T23:45:26.808Z,63.83
2023-01-07T23:47:53.693Z,62.60
2023-01-07T23:50:20.484Z,64.22
2023-01-07T23:52:47.241Z,60.03
2023-01-07T23:55:14.038Z,69.75
2023-01-07T23:57:40.766Z,60.45
